sensor_id;sensor_type;location;lat;lon;timestamp;temperature;humidity
5743;DHT22;2896;53.500;10.020;2022-11-15T00:00:46;5.00;99.90
5743;DHT22;2896;53.500;10.020;2022-11-15T00:03:13;4.90;99.90
5743;DHT22;2896;53.500;10.020;2022-11-15T00:05:40;4.80;99.90
5743;DHT22;2896;53.500;10.020;2022-11-15T00:08:09;5.00;99.90
5743;DHT22;2896;53.500;10.020;2022-11-15T00:10:36;5.00;99.90
5743;DHT22;2896;53.500;10.020;2022-11-15T00:13:05;5.00;99.90
5743;DHT22;2896;53.500;10.020;2022-11-15T00:15:34;5.10;99.90
5743;DHT22;2896;53.500;10.020;2022-11-15T00:18:01;4.90;99.90
5743;DHT22;2896;53.500;10.020;2022-11-15T00:20:27;4.90;99.90
5743;DHT22;2896;53.500;10.020;2022-11-15T00:22:55;4.90;99.90
5743;DHT22;2896;53.500;10.020;2022-11-15T00:25:23;5.00;99.90
5743;DHT22;2896;53.500;10.020;2022-11-15T00:27:49;5.00;99.90
5743;DHT22;2896;53.500;10.020;2022-11-15T00:30:17;5.00;99.90
5743;DHT22;2896;53.500;10.020;2022-11-15T00:32:43;5.20;99.90
5743;DHT22;2896;53.500;10.020;2022-11-15T00:35:10;5.20;99.90
5743;DHT22;2896;53.500;10.020;2022-11-15T00:37:36;5.30;99.90
5743;DHT22;2896;53.500;10.020;2022-11-15T00:40:04;5.20;99.90
5743;DHT22;2896;53.500;10.020;2022-11-15T00:42:32;5.20;99.90
5743;DHT22;2896;53.500;10.020;2022-11-15T00:44:59;5.20;99.90
5743;DHT22;2896;53.500;10.020;2022-11-15T00:47:25;5.20;99.90
5743;DHT22;2896;53.500;10.020;2022-11-15T00:49:52;5.30;99.90
5743;DHT22;2896;53.500;10.020;2022-11-15T00:52:18;5.40;99.90
5743;DHT22;2896;53.500;10.020;2022-11-15T00:54:45;5.30;99.90
5743;DHT22;2896;53.500;10.020;2022-11-15T00:57:12;5.30;99.90
5743;DHT22;2896;53.500;10.020;2022-11-15T00:59:39;5.20;99.90
5743;DHT22;2896;53.500;10.020;2022-11-15T01:02:06;5.20;99.90
5743;DHT22;2896;53.500;10.020;2022-11-15T01:04:33;5.40;99.90
5743;DHT22;2896;53.500;10.020;2022-11-15T01:06:59;5.40;99.90
5743;DHT22;2896;53.500;10.020;2022-11-15T01:09:26;5.40;99.90
5743;DHT22;2896;53.500;10.020;2022-11-15T01:11:52;5.20;99.90
5743;DHT22;2896;53.500;10.020;2022-11-15T01:14:19;5.10;99.90
5743;DHT22;2896;53.500;10.020;2022-11-15T01:16:47;4.90;99.90
5743;DHT22;2896;53.500;10.020;2022-11-15T01:19:14;5.00;99.90
5743;DHT22;2896;53.500;10.020;2022-11-15T01:21:40;4.90;99.90
5743;DHT22;2896;53.500;10.020;2022-11-15T01:24:08;4.80;99.90
5743;DHT22;2896;53.500;10.020;2022-11-15T01:26:38;4.70;99.90
5743;DHT22;2896;53.500;10.020;2022-11-15T01:29:04;4.70;99.90
5743;DHT22;2896;53.500;10.020;2022-11-15T01:31:31;4.70;99.90
5743;DHT22;2896;53.500;10.020;2022-11-15T01:33:59;4.50;99.90
5743;DHT22;2896;53.500;10.020;2022-11-15T01:36:26;4.50;99.90
5743;DHT22;2896;53.500;10.020;2022-11-15T01:38:53;4.60;99.90
5743;DHT22;2896;53.500;10.020;2022-11-15T01:41:22;4.40;99.90
5743;DHT22;2896;53.500;10.020;2022-11-15T01:43:52;4.30;99.90
5743;DHT22;2896;53.500;10.020;2022-11-15T01:46:30;4.20;99.90
5743;DHT22;2896;53.500;10.020;2022-11-15T01:49:03;4.20;99.90
5743;DHT22;2896;53.500;10.020;2022-11-15T01:51:32;4.10;99.90
5743;DHT22;2896;53.500;10.020;2022-11-15T01:54:02;4.00;99.90
5743;DHT22;2896;53.500;10.020;2022-11-15T01:56:32;3.90;99.90
5743;DHT22;2896;53.500;10.020;2022-11-15T01:59:02;3.80;99.90
5743;DHT22;2896;53.500;10.020;2022-11-15T02:01:31;3.80;99.90
5743;DHT22;2896;53.500;10.020;2022-11-15T02:04:03;3.50;99.90
5743;DHT22;2896;53.500;10.020;2022-11-15T02:06:32;3.70;99.90
5743;DHT22;2896;53.500;10.020;2022-11-15T02:09:01;3.60;99.90
5743;DHT22;2896;53.500;10.020;2022-11-15T02:11:28;3.70;99.90
5743;DHT22;2896;53.500;10.020;2022-11-15T02:13:55;3.60;99.90
5743;DHT22;2896;53.500;10.020;2022-11-15T02:16:28;3.50;99.90
5743;DHT22;2896;53.500;10.020;2022-11-15T02:19:00;3.50;99.90
5743;DHT22;2896;53.500;10.020;2022-11-15T02:21:35;3.40;99.90
5743;DHT22;2896;53.500;10.020;2022-11-15T02:24:37;3.40;99.90
5743;DHT22;2896;53.500;10.020;2022-11-15T02:27:28;3.30;99.90
5743;DHT22;2896;53.500;10.020;2022-11-15T02:30:04;3.20;99.90
5743;DHT22;2896;53.500;10.020;2022-11-15T02:32:37;3.10;99.90
5743;DHT22;2896;53.500;10.020;2022-11-15T02:35:13;3.10;99.90
5743;DHT22;2896;53.500;10.020;2022-11-15T02:37:45;3.10;99.90
5743;DHT22;2896;53.500;10.020;2022-11-15T02:40:17;3.10;99.90
5743;DHT22;2896;53.500;10.020;2022-11-15T02:42:50;2.90;99.90
5743;DHT22;2896;53.500;10.020;2022-11-15T02:45:40;3.10;99.90
5743;DHT22;2896;53.500;10.020;2022-11-15T02:48:10;3.10;99.90
5743;DHT22;2896;53.500;10.020;2022-11-15T02:50:37;3.00;99.90
5743;DHT22;2896;53.500;10.020;2022-11-15T02:53:04;3.00;99.90
5743;DHT22;2896;53.500;10.020;2022-11-15T02:55:32;3.10;99.90
5743;DHT22;2896;53.500;10.020;2022-11-15T02:58:12;2.90;99.90
5743;DHT22;2896;53.500;10.020;2022-11-15T03:00:48;3.00;99.90
5743;DHT22;2896;53.500;10.020;2022-11-15T03:03:30;3.10;99.90
5743;DHT22;2896;53.500;10.020;2022-11-15T03:06:08;3.10;99.90
5743;DHT22;2896;53.500;10.020;2022-11-15T03:08:45;3.00;99.90
5743;DHT22;2896;53.500;10.020;2022-11-15T03:11:15;3.00;99.90
5743;DHT22;2896;53.500;10.020;2022-11-15T03:13:47;3.00;99.90
5743;DHT22;2896;53.500;10.020;2022-11-15T03:16:21;3.00;99.90
5743;DHT22;2896;53.500;10.020;2022-11-15T03:18:55;3.00;99.90
5743;DHT22;2896;53.500;10.020;2022-11-15T03:21:25;2.90;99.90
5743;DHT22;2896;53.500;10.020;2022-11-15T03:23:52;2.70;99.90
5743;DHT22;2896;53.500;10.020;2022-11-15T03:26:21;2.90;99.90
5743;DHT22;2896;53.500;10.020;2022-11-15T03:28:52;2.80;99.90
5743;DHT22;2896;53.500;10.020;2022-11-15T03:31:22;2.80;99.90
5743;DHT22;2896;53.500;10.020;2022-11-15T03:34:12;2.80;99.90
5743;DHT22;2896;53.500;10.020;2022-11-15T03:36:42;2.80;99.90
5743;DHT22;2896;53.500;10.020;2022-11-15T03:39:10;2.80;99.90
5743;DHT22;2896;53.500;10.020;2022-11-15T03:41:40;2.90;99.90
5743;DHT22;2896;53.500;10.020;2022-11-15T03:44:13;2.80;99.90
5743;DHT22;2896;53.500;10.020;2022-11-15T03:46:47;2.80;99.90
5743;DHT22;2896;53.500;10.020;2022-11-15T03:49:24;2.70;99.90
5743;DHT22;2896;53.500;10.020;2022-11-15T03:51:52;2.80;99.90
5743;DHT22;2896;53.500;10.020;2022-11-15T03:54:18;2.90;99.90
5743;DHT22;2896;53.500;10.020;2022-11-15T03:56:45;2.70;99.90
5743;DHT22;2896;53.500;10.020;2022-11-15T03:59:12;2.70;99.90
5743;DHT22;2896;53.500;10.020;2022-11-15T04:01:38;2.60;99.90
5743;DHT22;2896;53.500;10.020;2022-11-15T04:04:05;2.80;99.90
5743;DHT22;2896;53.500;10.020;2022-11-15T04:06:33;2.90;99.90
5743;DHT22;2896;53.500;10.020;2022-11-15T04:09:00;2.90;99.90
5743;DHT22;2896;53.500;10.020;2022-11-15T04:11:26;3.00;99.90
5743;DHT22;2896;53.500;10.020;2022-11-15T04:13:53;3.10;99.90
5743;DHT22;2896;53.500;10.020;2022-11-15T04:16:19;3.20;99.90
5743;DHT22;2896;53.500;10.020;2022-11-15T04:18:46;3.10;99.90
5743;DHT22;2896;53.500;10.020;2022-11-15T04:21:35;3.10;99.90
5743;DHT22;2896;53.500;10.020;2022-11-15T04:24:19;3.30;99.90
5743;DHT22;2896;53.500;10.020;2022-11-15T04:26:45;3.30;99.90
5743;DHT22;2896;53.500;10.020;2022-11-15T04:29:12;3.30;99.90
5743;DHT22;2896;53.500;10.020;2022-11-15T04:31:56;3.20;99.90
5743;DHT22;2896;53.500;10.020;2022-11-15T04:34:23;3.30;99.90
5743;DHT22;2896;53.500;10.020;2022-11-15T04:36:51;3.50;99.90
5743;DHT22;2896;53.500;10.020;2022-11-15T04:39:35;3.50;99.90
5743;DHT22;2896;53.500;10.020;2022-11-15T04:42:02;3.60;99.90
5743;DHT22;2896;53.500;10.020;2022-11-15T04:44:28;3.70;99.90
5743;DHT22;2896;53.500;10.020;2022-11-15T04:46:55;4.50;99.90
5743;DHT22;2896;53.500;10.020;2022-11-15T04:49:22;3.90;99.90
5743;DHT22;2896;53.500;10.020;2022-11-15T04:51:48;3.80;99.90
5743;DHT22;2896;53.500;10.020;2022-11-15T04:54:16;4.00;99.90
5743;DHT22;2896;53.500;10.020;2022-11-15T04:56:43;4.10;99.90
5743;DHT22;2896;53.500;10.020;2022-11-15T04:59:10;4.20;99.90
5743;DHT22;2896;53.500;10.020;2022-11-15T05:01:36;4.30;99.90
5743;DHT22;2896;53.500;10.020;2022-11-15T05:04:03;4.40;99.90
5743;DHT22;2896;53.500;10.020;2022-11-15T05:06:44;4.70;99.90
5743;DHT22;2896;53.500;10.020;2022-11-15T05:09:11;4.60;99.90
5743;DHT22;2896;53.500;10.020;2022-11-15T05:11:40;4.70;99.90
5743;DHT22;2896;53.500;10.020;2022-11-15T05:14:07;4.90;99.90
5743;DHT22;2896;53.500;10.020;2022-11-15T05:16:34;4.90;99.90
5743;DHT22;2896;53.500;10.020;2022-11-15T05:19:01;5.00;99.90
5743;DHT22;2896;53.500;10.020;2022-11-15T05:21:28;5.10;99.90
5743;DHT22;2896;53.500;10.020;2022-11-15T05:23:54;5.10;99.90
5743;DHT22;2896;53.500;10.020;2022-11-15T05:26:21;5.10;99.90
5743;DHT22;2896;53.500;10.020;2022-11-15T05:28:53;5.10;99.90
5743;DHT22;2896;53.500;10.020;2022-11-15T05:31:20;5.20;99.90
5743;DHT22;2896;53.500;10.020;2022-11-15T05:33:48;5.40;99.90
5743;DHT22;2896;53.500;10.020;2022-11-15T05:36:17;5.40;99.90
5743;DHT22;2896;53.500;10.020;2022-11-15T05:38:45;5.40;99.90
5743;DHT22;2896;53.500;10.020;2022-11-15T05:41:13;5.50;99.90
5743;DHT22;2896;53.500;10.020;2022-11-15T05:43:41;5.50;99.90
5743;DHT22;2896;53.500;10.020;2022-11-15T05:46:13;5.60;99.90
5743;DHT22;2896;53.500;10.020;2022-11-15T05:48:42;5.50;99.90
5743;DHT22;2896;53.500;10.020;2022-11-15T05:51:09;5.60;99.90
5743;DHT22;2896;53.500;10.020;2022-11-15T05:53:37;5.60;99.90
5743;DHT22;2896;53.500;10.020;2022-11-15T05:56:05;5.70;99.90
5743;DHT22;2896;53.500;10.020;2022-11-15T05:58:32;5.60;99.90
5743;DHT22;2896;53.500;10.020;2022-11-15T06:00:59;5.70;99.90
5743;DHT22;2896;53.500;10.020;2022-11-15T06:03:28;5.90;99.90
5743;DHT22;2896;53.500;10.020;2022-11-15T06:05:54;5.90;99.90
5743;DHT22;2896;53.500;10.020;2022-11-15T06:08:21;5.80;99.90
5743;DHT22;2896;53.500;10.020;2022-11-15T06:10:48;5.90;99.90
5743;DHT22;2896;53.500;10.020;2022-11-15T06:13:14;5.90;99.90
5743;DHT22;2896;53.500;10.020;2022-11-15T06:15:41;6.00;99.90
5743;DHT22;2896;53.500;10.020;2022-11-15T06:18:08;6.10;99.90
5743;DHT22;2896;53.500;10.020;2022-11-15T06:20:35;6.10;99.90
5743;DHT22;2896;53.500;10.020;2022-11-15T06:23:03;6.10;99.90
5743;DHT22;2896;53.500;10.020;2022-11-15T06:25:31;6.10;99.90
5743;DHT22;2896;53.500;10.020;2022-11-15T06:27:58;6.20;99.90
5743;DHT22;2896;53.500;10.020;2022-11-15T06:30:27;6.10;99.90
5743;DHT22;2896;53.500;10.020;2022-11-15T06:32:59;6.20;99.90
5743;DHT22;2896;53.500;10.020;2022-11-15T06:35:26;6.20;99.90
5743;DHT22;2896;53.500;10.020;2022-11-15T06:37:53;6.20;99.90
5743;DHT22;2896;53.500;10.020;2022-11-15T06:40:20;6.20;99.90
5743;DHT22;2896;53.500;10.020;2022-11-15T06:42:47;6.20;99.90
5743;DHT22;2896;53.500;10.020;2022-11-15T06:45:13;6.40;99.90
5743;DHT22;2896;53.500;10.020;2022-11-15T06:47:44;6.40;99.90
5743;DHT22;2896;53.500;10.020;2022-11-15T06:50:11;6.40;99.90
5743;DHT22;2896;53.500;10.020;2022-11-15T06:52:38;6.30;99.90
5743;DHT22;2896;53.500;10.020;2022-11-15T06:55:07;6.30;99.90
5743;DHT22;2896;53.500;10.020;2022-11-15T06:57:34;6.30;99.90
5743;DHT22;2896;53.500;10.020;2022-11-15T07:00:01;6.50;99.90
5743;DHT22;2896;53.500;10.020;2022-11-15T07:02:28;6.40;99.90
5743;DHT22;2896;53.500;10.020;2022-11-15T07:04:55;6.40;99.90
5743;DHT22;2896;53.500;10.020;2022-11-15T07:07:22;6.40;99.90
5743;DHT22;2896;53.500;10.020;2022-11-15T07:09:48;6.40;99.90
5743;DHT22;2896;53.500;10.020;2022-11-15T07:12:16;6.40;99.90
5743;DHT22;2896;53.500;10.020;2022-11-15T07:14:43;6.60;99.90
5743;DHT22;2896;53.500;10.020;2022-11-15T07:17:09;6.50;99.90
5743;DHT22;2896;53.500;10.020;2022-11-15T07:19:36;6.60;99.90
5743;DHT22;2896;53.500;10.020;2022-11-15T07:22:03;6.50;99.90
5743;DHT22;2896;53.500;10.020;2022-11-15T07:24:29;6.50;99.90
5743;DHT22;2896;53.500;10.020;2022-11-15T07:26:56;6.70;99.90
5743;DHT22;2896;53.500;10.020;2022-11-15T07:29:24;6.70;99.90
5743;DHT22;2896;53.500;10.020;2022-11-15T07:31:50;6.60;99.90
5743;DHT22;2896;53.500;10.020;2022-11-15T07:34:17;6.50;99.90
5743;DHT22;2896;53.500;10.020;2022-11-15T07:36:44;6.50;99.90
5743;DHT22;2896;53.500;10.020;2022-11-15T07:39:10;6.60;99.90
5743;DHT22;2896;53.500;10.020;2022-11-15T07:41:37;6.70;99.90
5743;DHT22;2896;53.500;10.020;2022-11-15T07:44:04;6.80;99.90
5743;DHT22;2896;53.500;10.020;2022-11-15T07:46:32;6.70;99.90
5743;DHT22;2896;53.500;10.020;2022-11-15T07:48:59;6.70;99.90
5743;DHT22;2896;53.500;10.020;2022-11-15T07:51:26;6.60;99.90
5743;DHT22;2896;53.500;10.020;2022-11-15T07:53:52;6.70;99.90
5743;DHT22;2896;53.500;10.020;2022-11-15T07:56:19;6.90;99.90
5743;DHT22;2896;53.500;10.020;2022-11-15T07:58:46;6.80;99.90
5743;DHT22;2896;53.500;10.020;2022-11-15T08:01:13;6.90;99.90
5743;DHT22;2896;53.500;10.020;2022-11-15T08:03:41;7.00;99.90
5743;DHT22;2896;53.500;10.020;2022-11-15T08:06:07;7.00;99.90
5743;DHT22;2896;53.500;10.020;2022-11-15T08:08:34;7.00;99.90
5743;DHT22;2896;53.500;10.020;2022-11-15T08:11:01;7.00;99.90
5743;DHT22;2896;53.500;10.020;2022-11-15T08:13:27;7.10;99.90
5743;DHT22;2896;53.500;10.020;2022-11-15T08:15:57;9.30;99.90
5743;DHT22;2896;53.500;10.020;2022-11-15T08:18:24;7.00;99.90
5743;DHT22;2896;53.500;10.020;2022-11-15T08:20:52;7.10;99.90
5743;DHT22;2896;53.500;10.020;2022-11-15T08:23:19;7.00;99.90
5743;DHT22;2896;53.500;10.020;2022-11-15T08:25:45;7.10;99.90
5743;DHT22;2896;53.500;10.020;2022-11-15T08:28:12;7.10;99.90
5743;DHT22;2896;53.500;10.020;2022-11-15T08:30:41;7.10;99.90
5743;DHT22;2896;53.500;10.020;2022-11-15T08:33:11;7.20;99.90
5743;DHT22;2896;53.500;10.020;2022-11-15T08:35:38;7.20;99.90
5743;DHT22;2896;53.500;10.020;2022-11-15T08:38:05;7.20;99.90
5743;DHT22;2896;53.500;10.020;2022-11-15T08:40:32;7.20;99.90
5743;DHT22;2896;53.500;10.020;2022-11-15T08:42:59;7.10;99.90
5743;DHT22;2896;53.500;10.020;2022-11-15T08:45:27;7.20;99.90
5743;DHT22;2896;53.500;10.020;2022-11-15T08:47:54;7.30;99.90
5743;DHT22;2896;53.500;10.020;2022-11-15T08:50:21;7.40;99.90
5743;DHT22;2896;53.500;10.020;2022-11-15T08:52:48;7.40;99.90
5743;DHT22;2896;53.500;10.020;2022-11-15T08:55:16;7.40;99.90
5743;DHT22;2896;53.500;10.020;2022-11-15T08:57:42;7.50;99.90
5743;DHT22;2896;53.500;10.020;2022-11-15T09:00:10;7.50;99.90
5743;DHT22;2896;53.500;10.020;2022-11-15T09:02:37;7.60;99.90
5743;DHT22;2896;53.500;10.020;2022-11-15T09:05:05;7.60;99.90
5743;DHT22;2896;53.500;10.020;2022-11-15T09:07:32;7.70;99.90
5743;DHT22;2896;53.500;10.020;2022-11-15T09:09:58;7.90;99.90
5743;DHT22;2896;53.500;10.020;2022-11-15T09:12:26;8.10;99.90
5743;DHT22;2896;53.500;10.020;2022-11-15T09:14:53;8.10;99.90
5743;DHT22;2896;53.500;10.020;2022-11-15T09:17:20;8.20;99.90
5743;DHT22;2896;53.500;10.020;2022-11-15T09:19:46;8.30;99.90
5743;DHT22;2896;53.500;10.020;2022-11-15T09:22:13;8.30;99.90
5743;DHT22;2896;53.500;10.020;2022-11-15T09:24:39;8.30;99.90
5743;DHT22;2896;53.500;10.020;2022-11-15T09:27:06;8.30;99.90
5743;DHT22;2896;53.500;10.020;2022-11-15T09:29:34;8.40;99.90
5743;DHT22;2896;53.500;10.020;2022-11-15T09:32:01;8.50;99.90
5743;DHT22;2896;53.500;10.020;2022-11-15T09:34:28;8.60;99.90
5743;DHT22;2896;53.500;10.020;2022-11-15T09:36:54;8.70;99.90
5743;DHT22;2896;53.500;10.020;2022-11-15T09:39:21;8.80;99.90
5743;DHT22;2896;53.500;10.020;2022-11-15T09:41:56;8.90;99.90
5743;DHT22;2896;53.500;10.020;2022-11-15T09:44:38;9.00;99.90
5743;DHT22;2896;53.500;10.020;2022-11-15T09:47:30;9.10;99.90
5743;DHT22;2896;53.500;10.020;2022-11-15T09:50:08;9.20;99.90
5743;DHT22;2896;53.500;10.020;2022-11-15T09:52:39;9.20;99.90
5743;DHT22;2896;53.500;10.020;2022-11-15T09:55:09;9.30;99.90
5743;DHT22;2896;53.500;10.020;2022-11-15T09:57:39;9.20;1.00
5743;DHT22;2896;53.500;10.020;2022-11-15T10:00:15;9.20;1.00
5743;DHT22;2896;53.500;10.020;2022-11-15T10:02:55;9.20;1.00
5743;DHT22;2896;53.500;10.020;2022-11-15T10:05:25;9.30;2.30
5743;DHT22;2896;53.500;10.020;2022-11-15T10:07:58;9.30;21.00
5743;DHT22;2896;53.500;10.020;2022-11-15T10:10:29;9.30;1.00
5743;DHT22;2896;53.500;10.020;2022-11-15T10:12:57;9.40;1.00
5743;DHT22;2896;53.500;10.020;2022-11-15T10:15:26;9.40;1.00
5743;DHT22;2896;53.500;10.020;2022-11-15T10:18:06;9.40;1.00
5743;DHT22;2896;53.500;10.020;2022-11-15T10:20:41;9.50;1.00
5743;DHT22;2896;53.500;10.020;2022-11-15T10:23:13;9.50;1.00
5743;DHT22;2896;53.500;10.020;2022-11-15T10:25:40;9.60;1.00
5743;DHT22;2896;53.500;10.020;2022-11-15T10:28:13;9.60;1.00
5743;DHT22;2896;53.500;10.020;2022-11-15T10:30:44;9.80;1.00
5743;DHT22;2896;53.500;10.020;2022-11-15T10:33:22;9.80;1.00
5743;DHT22;2896;53.500;10.020;2022-11-15T10:36:16;9.90;1.00
5743;DHT22;2896;53.500;10.020;2022-11-15T10:38:52;10.00;1.00
5743;DHT22;2896;53.500;10.020;2022-11-15T10:41:22;10.10;1.00
5743;DHT22;2896;53.500;10.020;2022-11-15T10:44:09;10.10;1.00
5743;DHT22;2896;53.500;10.020;2022-11-15T10:46:39;10.20;1.00
5743;DHT22;2896;53.500;10.020;2022-11-15T10:49:14;10.20;1.00
5743;DHT22;2896;53.500;10.020;2022-11-15T10:51:46;10.30;1.00
5743;DHT22;2896;53.500;10.020;2022-11-15T10:54:16;10.40;1.00
5743;DHT22;2896;53.500;10.020;2022-11-15T10:56:49;10.30;99.90
5743;DHT22;2896;53.500;10.020;2022-11-15T10:59:21;10.40;1.00
5743;DHT22;2896;53.500;10.020;2022-11-15T11:01:50;10.40;1.00
5743;DHT22;2896;53.500;10.020;2022-11-15T11:04:16;10.50;1.00
5743;DHT22;2896;53.500;10.020;2022-11-15T11:06:49;10.60;99.90
5743;DHT22;2896;53.500;10.020;2022-11-15T11:09:28;10.60;99.90
5743;DHT22;2896;53.500;10.020;2022-11-15T11:11:55;10.60;99.90
5743;DHT22;2896;53.500;10.020;2022-11-15T11:14:24;10.70;99.90
5743;DHT22;2896;53.500;10.020;2022-11-15T11:16:54;10.70;99.90
5743;DHT22;2896;53.500;10.020;2022-11-15T11:19:44;10.80;99.90
5743;DHT22;2896;53.500;10.020;2022-11-15T11:22:20;10.80;1.00
5743;DHT22;2896;53.500;10.020;2022-11-15T11:24:56;10.60;1.00
5743;DHT22;2896;53.500;10.020;2022-11-15T11:27:43;10.70;1.00
5743;DHT22;2896;53.500;10.020;2022-11-15T11:30:14;10.70;1.00
5743;DHT22;2896;53.500;10.020;2022-11-15T11:32:59;10.70;24.50
5743;DHT22;2896;53.500;10.020;2022-11-15T11:35:30;10.70;48.30
5743;DHT22;2896;53.500;10.020;2022-11-15T11:38:12;10.70;1.00
5743;DHT22;2896;53.500;10.020;2022-11-15T11:40:44;10.80;1.00
5743;DHT22;2896;53.500;10.020;2022-11-15T11:43:23;10.70;99.90
5743;DHT22;2896;53.500;10.020;2022-11-15T11:46:08;10.70;1.00
5743;DHT22;2896;53.500;10.020;2022-11-15T11:48:44;10.80;26.70
5743;DHT22;2896;53.500;10.020;2022-11-15T11:51:17;10.90;1.00
5743;DHT22;2896;53.500;10.020;2022-11-15T11:53:51;10.90;99.90
5743;DHT22;2896;53.500;10.020;2022-11-15T11:56:24;10.90;99.90
5743;DHT22;2896;53.500;10.020;2022-11-15T11:58:53;10.90;1.00
5743;DHT22;2896;53.500;10.020;2022-11-15T12:01:23;10.90;90.70
5743;DHT22;2896;53.500;10.020;2022-11-15T12:03:56;11.00;99.90
5743;DHT22;2896;53.500;10.020;2022-11-15T12:06:30;11.10;99.90
5743;DHT22;2896;53.500;10.020;2022-11-15T12:09:02;11.20;1.00
5743;DHT22;2896;53.500;10.020;2022-11-15T12:11:37;11.30;1.00
5743;DHT22;2896;53.500;10.020;2022-11-15T12:14:21;11.40;99.90
5743;DHT22;2896;53.500;10.020;2022-11-15T12:16:51;11.50;80.20
5743;DHT22;2896;53.500;10.020;2022-11-15T12:19:17;11.70;1.00
5743;DHT22;2896;53.500;10.020;2022-11-15T12:21:46;11.80;99.90
5743;DHT22;2896;53.500;10.020;2022-11-15T12:24:19;11.90;99.90
5743;DHT22;2896;53.500;10.020;2022-11-15T12:26:50;11.90;99.90
5743;DHT22;2896;53.500;10.020;2022-11-15T12:29:23;12.00;99.90
5743;DHT22;2896;53.500;10.020;2022-11-15T12:31:54;12.20;1.00
5743;DHT22;2896;53.500;10.020;2022-11-15T12:34:43;12.30;99.90
5743;DHT22;2896;53.500;10.020;2022-11-15T12:40:30;12.40;1.00
5743;DHT22;2896;53.500;10.020;2022-11-15T12:43:00;12.40;1.00
5743;DHT22;2896;53.500;10.020;2022-11-15T12:45:29;12.50;1.00
5743;DHT22;2896;53.500;10.020;2022-11-15T12:51:08;12.50;1.00
5743;DHT22;2896;53.500;10.020;2022-11-15T12:53:35;12.50;1.00
5743;DHT22;2896;53.500;10.020;2022-11-15T12:56:21;12.60;1.00
5743;DHT22;2896;53.500;10.020;2022-11-15T12:58:51;12.60;1.00
5743;DHT22;2896;53.500;10.020;2022-11-15T13:01:56;12.60;1.00
5743;DHT22;2896;53.500;10.020;2022-11-15T13:04:26;12.70;1.00
5743;DHT22;2896;53.500;10.020;2022-11-15T13:06:54;12.70;99.90
5743;DHT22;2896;53.500;10.020;2022-11-15T13:09:53;12.70;99.90
5743;DHT22;2896;53.500;10.020;2022-11-15T13:15:37;12.60;99.90
5743;DHT22;2896;53.500;10.020;2022-11-15T13:18:33;12.60;99.90
5743;DHT22;2896;53.500;10.020;2022-11-15T13:21:01;12.60;99.90
5743;DHT22;2896;53.500;10.020;2022-11-15T13:23:52;12.60;1.00
5743;DHT22;2896;53.500;10.020;2022-11-15T13:26:19;12.70;99.90
5743;DHT22;2896;53.500;10.020;2022-11-15T13:28:47;12.60;99.90
5743;DHT22;2896;53.500;10.020;2022-11-15T13:31:34;12.70;1.00
5743;DHT22;2896;53.500;10.020;2022-11-15T13:34:12;12.60;99.90
5743;DHT22;2896;53.500;10.020;2022-11-15T13:36:40;12.60;99.90
5743;DHT22;2896;53.500;10.020;2022-11-15T13:39:26;12.60;99.90
5743;DHT22;2896;53.500;10.020;2022-11-15T13:41:53;12.70;99.90
5743;DHT22;2896;53.500;10.020;2022-11-15T13:44:21;12.80;99.90
5743;DHT22;2896;53.500;10.020;2022-11-15T13:47:00;12.70;99.90
5743;DHT22;2896;53.500;10.020;2022-11-15T13:49:29;12.80;99.90
5743;DHT22;2896;53.500;10.020;2022-11-15T13:51:57;12.80;99.90
5743;DHT22;2896;53.500;10.020;2022-11-15T13:54:27;12.80;99.90
5743;DHT22;2896;53.500;10.020;2022-11-15T13:56:57;12.80;99.90
5743;DHT22;2896;53.500;10.020;2022-11-15T13:59:25;12.90;99.90
5743;DHT22;2896;53.500;10.020;2022-11-15T14:01:55;12.90;99.90
5743;DHT22;2896;53.500;10.020;2022-11-15T14:04:24;13.00;99.90
5743;DHT22;2896;53.500;10.020;2022-11-15T14:06:54;13.10;99.90
5743;DHT22;2896;53.500;10.020;2022-11-15T14:09:35;13.10;99.90
5743;DHT22;2896;53.500;10.020;2022-11-15T14:14:45;13.00;99.90
5743;DHT22;2896;53.500;10.020;2022-11-15T14:17:21;13.00;99.90
5743;DHT22;2896;53.500;10.020;2022-11-15T14:19:49;13.00;99.90
5743;DHT22;2896;53.500;10.020;2022-11-15T14:22:19;12.90;99.90
5743;DHT22;2896;53.500;10.020;2022-11-15T14:25:05;12.90;99.90
5743;DHT22;2896;53.500;10.020;2022-11-15T14:27:33;12.90;99.90
5743;DHT22;2896;53.500;10.020;2022-11-15T14:30:00;12.80;99.90
5743;DHT22;2896;53.500;10.020;2022-11-15T14:32:29;12.70;99.90
5743;DHT22;2896;53.500;10.020;2022-11-15T14:34:59;12.70;99.90
5743;DHT22;2896;53.500;10.020;2022-11-15T14:37:28;12.60;99.90
5743;DHT22;2896;53.500;10.020;2022-11-15T14:39:56;12.60;99.90
5743;DHT22;2896;53.500;10.020;2022-11-15T14:42:24;12.50;99.90
5743;DHT22;2896;53.500;10.020;2022-11-15T14:44:51;12.50;99.90
5743;DHT22;2896;53.500;10.020;2022-11-15T14:47:18;12.40;99.90
5743;DHT22;2896;53.500;10.020;2022-11-15T14:49:46;12.30;1.00
5743;DHT22;2896;53.500;10.020;2022-11-15T14:52:31;12.30;99.90
5743;DHT22;2896;53.500;10.020;2022-11-15T14:55:00;12.30;1.00
5743;DHT22;2896;53.500;10.020;2022-11-15T14:57:27;12.20;1.00
5743;DHT22;2896;53.500;10.020;2022-11-15T14:59:54;12.00;1.00
5743;DHT22;2896;53.500;10.020;2022-11-15T15:02:22;11.90;1.00
5743;DHT22;2896;53.500;10.020;2022-11-15T15:04:50;11.90;1.00
5743;DHT22;2896;53.500;10.020;2022-11-15T15:07:17;11.80;1.00
5743;DHT22;2896;53.500;10.020;2022-11-15T15:09:44;11.80;1.00
5743;DHT22;2896;53.500;10.020;2022-11-15T15:12:16;11.80;1.00
5743;DHT22;2896;53.500;10.020;2022-11-15T15:14:43;11.70;1.00
5743;DHT22;2896;53.500;10.020;2022-11-15T15:17:10;11.60;1.00
5743;DHT22;2896;53.500;10.020;2022-11-15T15:19:37;11.50;1.00
5743;DHT22;2896;53.500;10.020;2022-11-15T15:22:05;11.40;1.00
5743;DHT22;2896;53.500;10.020;2022-11-15T15:24:32;11.20;1.00
5743;DHT22;2896;53.500;10.020;2022-11-15T15:26:58;11.30;1.00
5743;DHT22;2896;53.500;10.020;2022-11-15T15:29:25;11.30;1.00
5743;DHT22;2896;53.500;10.020;2022-11-15T15:31:52;11.20;1.00
5743;DHT22;2896;53.500;10.020;2022-11-15T15:34:18;11.10;1.00
5743;DHT22;2896;53.500;10.020;2022-11-15T15:36:45;10.90;1.00
5743;DHT22;2896;53.500;10.020;2022-11-15T15:39:13;10.90;1.00
5743;DHT22;2896;53.500;10.020;2022-11-15T15:41:39;10.80;1.00
5743;DHT22;2896;53.500;10.020;2022-11-15T15:44:06;10.70;1.00
5743;DHT22;2896;53.500;10.020;2022-11-15T15:46:34;10.60;1.00
5743;DHT22;2896;53.500;10.020;2022-11-15T15:49:00;10.50;1.00
5743;DHT22;2896;53.500;10.020;2022-11-15T15:51:27;10.40;1.00
5743;DHT22;2896;53.500;10.020;2022-11-15T15:53:54;10.30;1.00
5743;DHT22;2896;53.500;10.020;2022-11-15T15:56:23;10.30;1.00
5743;DHT22;2896;53.500;10.020;2022-11-15T15:58:50;10.10;1.00
5743;DHT22;2896;53.500;10.020;2022-11-15T16:01:18;10.10;1.00
5743;DHT22;2896;53.500;10.020;2022-11-15T16:03:45;9.90;1.00
5743;DHT22;2896;53.500;10.020;2022-11-15T16:06:34;10.00;1.00
5743;DHT22;2896;53.500;10.020;2022-11-15T16:09:01;10.10;1.00
5743;DHT22;2896;53.500;10.020;2022-11-15T16:11:29;10.20;1.00
5743;DHT22;2896;53.500;10.020;2022-11-15T16:13:56;10.30;1.00
5743;DHT22;2896;53.500;10.020;2022-11-15T16:16:22;10.30;1.00
5743;DHT22;2896;53.500;10.020;2022-11-15T16:18:49;10.20;1.00
5743;DHT22;2896;53.500;10.020;2022-11-15T16:21:15;10.20;1.00
5743;DHT22;2896;53.500;10.020;2022-11-15T16:23:42;10.20;1.00
5743;DHT22;2896;53.500;10.020;2022-11-15T16:26:16;10.20;1.00
5743;DHT22;2896;53.500;10.020;2022-11-15T16:28:45;10.30;1.00
5743;DHT22;2896;53.500;10.020;2022-11-15T16:31:12;10.30;1.00